createdAt,value
2022-12-01T00:01:13.945Z,48.75
2022-12-01T00:03:41.927Z,51.50
2022-12-01T00:06:12.002Z,50.00
2022-12-01T00:08:40.049Z,50.50
2022-12-01T00:11:07.662Z,46.20
2022-12-01T00:13:37.150Z,49.80
2022-12-01T00:16:12.036Z,47.25
2022-12-01T00:18:40.110Z,51.20
2022-12-01T00:21:09.591Z,51.40
2022-12-01T00:23:37.569Z,51.40
2022-12-01T00:26:07.004Z,48.50
2022-12-01T00:28:36.364Z,51.00
2022-12-01T00:31:08.213Z,53.00
2022-12-01T00:33:36.195Z,53.00
2022-12-01T00:36:04.552Z,54.20
2022-12-01T00:38:32.805Z,52.40
2022-12-01T00:41:00.810Z,51.25
2022-12-01T00:43:28.781Z,53.60
2022-12-01T00:45:58.216Z,52.50
2022-12-01T00:48:26.228Z,52.00
2022-12-01T00:50:54.761Z,48.50
2022-12-01T00:53:23.551Z,47.60
2022-12-01T00:55:51.545Z,48.00
2022-12-01T00:58:19.544Z,50.75
2022-12-01T01:00:47.666Z,52.20
2022-12-01T01:03:17.154Z,49.20
2022-12-01T01:05:45.136Z,52.00
2022-12-01T01:08:14.976Z,51.00
2022-12-01T01:10:43.735Z,51.80
2022-12-01T01:13:11.774Z,54.20
2022-12-01T01:15:39.799Z,52.00
2022-12-01T01:18:09.653Z,52.20
2022-12-01T01:20:39.057Z,49.40
2022-12-01T01:23:07.106Z,51.00
2022-12-01T01:25:35.092Z,48.75
2022-12-01T01:28:03.105Z,47.00
2022-12-01T01:30:31.132Z,46.00
2022-12-01T01:32:59.154Z,47.20
2022-12-01T01:35:27.810Z,48.40
2022-12-01T01:37:57.461Z,51.25
2022-12-01T01:40:25.429Z,50.00
2022-12-01T01:42:53.424Z,49.00
2022-12-01T01:45:23.206Z,49.75
2022-12-01T01:47:51.288Z,50.75
2022-12-01T01:50:20.880Z,51.20
2022-12-01T01:52:50.619Z,50.25
2022-12-01T01:55:20.103Z,51.67
2022-12-01T01:57:48.127Z,51.25
2022-12-01T02:00:17.724Z,48.00
2022-12-01T02:02:46.698Z,51.60
2022-12-01T02:05:17.689Z,50.40
2022-12-01T02:07:45.943Z,50.00
2022-12-01T02:10:14.516Z,54.00
2022-12-01T02:12:50.968Z,51.80
2022-12-01T02:15:23.735Z,52.50
2022-12-01T02:17:56.962Z,52.60
2022-12-01T02:20:53.486Z,51.25
2022-12-01T02:23:41.528Z,50.60
2022-12-01T02:26:25.264Z,50.50
2022-12-01T02:28:59.786Z,50.00
2022-12-01T02:31:30.245Z,53.75
2022-12-01T02:33:59.764Z,48.00
2022-12-01T02:36:30.878Z,48.00
2022-12-01T02:39:00.260Z,48.40
2022-12-01T02:41:30.627Z,48.00
2022-12-01T02:44:00.675Z,51.00
2022-12-01T02:46:32.221Z,55.50
2022-12-01T02:49:02.097Z,48.00
2022-12-01T02:51:30.835Z,47.00
2022-12-01T02:53:59.187Z,51.25
2022-12-01T02:56:27.293Z,50.80
2022-12-01T02:58:55.306Z,51.00
2022-12-01T03:01:33.711Z,47.75
2022-12-01T03:04:04.289Z,49.50
2022-12-01T03:06:38.244Z,45.25
2022-12-01T03:09:10.009Z,50.00
2022-12-01T03:11:42.129Z,50.50
2022-12-01T03:14:13.783Z,49.50
2022-12-01T03:16:48.238Z,51.75
2022-12-01T03:19:17.728Z,48.00
2022-12-01T03:21:47.709Z,46.00
2022-12-01T03:24:16.630Z,45.60
2022-12-01T03:26:46.791Z,49.00
2022-12-01T03:29:15.931Z,47.00
2022-12-01T03:31:47.112Z,46.25
2022-12-01T03:34:16.644Z,47.00
2022-12-01T03:36:46.419Z,49.25
2022-12-01T03:39:16.100Z,44.60
2022-12-01T03:41:45.082Z,46.50
2022-12-01T03:44:16.065Z,45.00
2022-12-01T03:46:47.704Z,50.75
2022-12-01T03:49:15.847Z,49.60
2022-12-01T03:51:48.406Z,49.25
2022-12-01T03:54:19.160Z,50.75
2022-12-01T03:56:48.739Z,46.75
2022-12-01T03:59:17.237Z,48.60
2022-12-01T04:01:46.658Z,43.80
2022-12-01T04:04:15.149Z,48.80
2022-12-01T04:06:44.224Z,50.50
2022-12-01T04:09:12.203Z,49.00
2022-12-01T04:11:57.586Z,51.25
2022-12-01T04:14:25.588Z,45.00
2022-12-01T04:16:54.951Z,44.60
2022-12-01T04:19:22.980Z,48.40
2022-12-01T04:21:50.965Z,48.60
2022-12-01T04:24:18.963Z,45.75
2022-12-01T04:26:47.091Z,50.00
2022-12-01T04:29:15.164Z,50.00
2022-12-01T04:31:43.256Z,42.60
2022-12-01T04:34:12.662Z,50.00
2022-12-01T04:36:40.666Z,43.25
2022-12-01T04:39:08.669Z,54.00
2022-12-01T04:41:36.662Z,54.00
2022-12-01T04:44:04.712Z,50.20
2022-12-01T04:46:32.752Z,48.00
2022-12-01T04:49:00.806Z,48.40
2022-12-01T04:51:30.146Z,50.00
2022-12-01T04:53:58.167Z,50.60
2022-12-01T04:56:26.157Z,48.00
2022-12-01T04:58:54.231Z,49.60
2022-12-01T05:01:22.235Z,51.20
2022-12-01T05:03:50.561Z,52.00
2022-12-01T05:06:19.475Z,47.25
2022-12-01T05:08:48.941Z,54.25
2022-12-01T05:11:16.985Z,54.00
2022-12-01T05:13:45.772Z,51.80
2022-12-01T05:16:15.084Z,53.20
2022-12-01T05:18:43.241Z,49.75
2022-12-01T05:21:10.793Z,51.00
2022-12-01T05:23:38.933Z,52.00
2022-12-01T05:26:09.107Z,50.20
2022-12-01T05:28:37.265Z,48.80
2022-12-01T05:31:05.356Z,51.00
2022-12-01T05:33:33.392Z,51.00
2022-12-01T05:36:01.379Z,51.00
2022-12-01T05:38:29.382Z,54.00
2022-12-01T05:40:57.379Z,50.60
2022-12-01T05:43:29.325Z,49.25
2022-12-01T05:45:57.660Z,55.20
2022-12-01T05:48:25.833Z,51.50
2022-12-01T05:50:53.815Z,52.00
2022-12-01T05:53:21.883Z,50.00
2022-12-01T05:55:53.139Z,50.50
2022-12-01T05:58:21.185Z,53.00
2022-12-01T06:00:50.528Z,55.33
2022-12-01T06:03:18.540Z,51.50
2022-12-01T06:05:46.524Z,53.50
2022-12-01T06:08:14.539Z,52.00
2022-12-01T06:10:42.534Z,54.00
2022-12-01T06:13:10.555Z,52.00
2022-12-01T06:15:38.564Z,52.50
2022-12-01T06:18:07.945Z,49.75
2022-12-01T06:20:35.925Z,52.00
2022-12-01T06:23:03.999Z,56.00
2022-12-01T06:25:31.990Z,55.25
2022-12-01T06:28:00.166Z,54.00
2022-12-01T06:30:28.155Z,52.67
2022-12-01T06:32:56.174Z,54.00
2022-12-01T06:35:25.494Z,54.60
2022-12-01T06:37:54.340Z,55.50
2022-12-01T06:40:22.414Z,55.33
2022-12-01T06:42:50.420Z,56.25
2022-12-01T06:45:18.741Z,59.00
2022-12-01T06:47:48.239Z,51.75
2022-12-01T06:50:16.358Z,56.00
2022-12-01T06:52:45.738Z,51.50
2022-12-01T06:55:13.803Z,54.67
2022-12-01T06:57:43.478Z,57.60
2022-12-01T07:00:13.681Z,53.50
2022-12-01T07:02:42.156Z,56.00
2022-12-01T07:05:10.581Z,55.40
2022-12-01T07:07:38.968Z,55.25
2022-12-01T07:10:09.627Z,55.50
2022-12-01T07:12:37.687Z,50.00
2022-12-01T07:15:06.432Z,55.75
2022-12-01T07:17:34.660Z,54.75
2022-12-01T07:20:04.039Z,56.50
2022-12-01T07:22:33.013Z,55.75
2022-12-01T07:25:01.133Z,55.60
2022-12-01T07:27:32.122Z,56.60
2022-12-01T07:30:00.148Z,54.00
2022-12-01T07:32:28.225Z,54.20
2022-12-01T07:34:56.231Z,57.50
2022-12-01T07:37:24.235Z,58.00
2022-12-01T07:39:52.266Z,55.40
2022-12-01T07:42:20.278Z,58.40
2022-12-01T07:44:49.629Z,56.25
2022-12-01T07:47:17.643Z,57.80
2022-12-01T07:49:45.602Z,56.50
2022-12-01T07:52:13.587Z,56.00
2022-12-01T07:54:41.626Z,59.25
2022-12-01T07:57:09.662Z,53.00
2022-12-01T07:59:37.671Z,60.00
2022-12-01T08:02:07.052Z,58.50
2022-12-01T08:04:35.114Z,52.60
2022-12-01T08:07:03.116Z,55.40
2022-12-01T08:09:31.218Z,55.00
2022-12-01T08:11:59.215Z,54.40
2022-12-01T08:14:27.220Z,59.00
2022-12-01T08:16:55.209Z,56.80
2022-12-01T08:19:25.904Z,53.75
2022-12-01T08:21:53.919Z,50.25
2022-12-01T08:24:21.984Z,55.40
2022-12-01T08:26:49.963Z,53.00
2022-12-01T08:29:20.351Z,56.00
2022-12-01T08:31:48.700Z,53.80
2022-12-01T08:34:16.724Z,53.75
2022-12-01T08:36:46.085Z,57.60
2022-12-01T08:39:14.278Z,53.00
2022-12-01T08:41:42.272Z,54.50
2022-12-01T08:44:11.020Z,53.00
2022-12-01T08:46:39.138Z,53.00
2022-12-01T08:49:07.311Z,55.40
2022-12-01T08:51:36.353Z,52.80
2022-12-01T08:54:05.960Z,55.00
2022-12-01T08:56:35.686Z,53.00
2022-12-01T08:59:03.766Z,54.50
2022-12-01T09:01:32.935Z,56.80
2022-12-01T09:04:08.810Z,52.40
2022-12-01T09:06:40.150Z,52.75
2022-12-01T09:09:09.567Z,55.50
2022-12-01T09:11:37.622Z,58.25
2022-12-01T09:14:05.673Z,55.00
2022-12-01T09:16:33.841Z,55.40
2022-12-01T09:19:01.906Z,55.50
2022-12-01T09:21:31.413Z,56.25
2022-12-01T09:23:59.470Z,51.75
2022-12-01T09:26:29.031Z,56.80
2022-12-01T09:28:59.290Z,51.00
2022-12-01T09:31:27.474Z,58.00
2022-12-01T09:33:56.362Z,55.50
2022-12-01T09:36:24.356Z,53.25
2022-12-01T09:38:52.377Z,55.00
2022-12-01T09:41:21.906Z,52.00
2022-12-01T09:43:52.989Z,50.00
2022-12-01T09:46:22.695Z,50.50
2022-12-01T09:48:51.115Z,50.75
2022-12-01T09:51:19.943Z,50.00
2022-12-01T09:53:48.043Z,54.00
2022-12-01T09:56:20.730Z,48.75
2022-12-01T09:58:52.155Z,49.80
2022-12-01T10:01:25.857Z,51.50
2022-12-01T10:03:56.856Z,53.00
2022-12-01T10:06:29.369Z,52.20
2022-12-01T10:09:01.503Z,52.50
2022-12-01T10:11:31.660Z,50.50
2022-12-01T10:14:01.246Z,50.40
2022-12-01T10:16:31.674Z,54.75
2022-12-01T10:19:01.374Z,45.00
2022-12-01T10:21:39.120Z,46.40
2022-12-01T10:24:15.222Z,48.00
2022-12-01T10:26:47.204Z,46.00
2022-12-01T10:29:21.296Z,50.50
2022-12-01T10:31:53.979Z,43.00
2022-12-01T10:34:23.611Z,46.00
2022-12-01T10:36:51.587Z,48.50
2022-12-01T10:39:21.311Z,51.60
2022-12-01T10:41:49.720Z,48.00
2022-12-01T10:44:19.474Z,50.25
2022-12-01T10:46:49.351Z,45.00
2022-12-01T10:49:18.207Z,51.00
2022-12-01T10:51:54.917Z,48.80
2022-12-01T10:54:23.515Z,47.60
2022-12-01T10:56:56.105Z,48.00
2022-12-01T10:59:28.074Z,45.50
2022-12-01T11:01:56.451Z,49.60
2022-12-01T11:04:34.487Z,49.80
2022-12-01T11:07:02.475Z,43.00
2022-12-01T11:09:31.086Z,47.50
2022-12-01T11:11:59.624Z,46.40
2022-12-01T11:14:35.052Z,48.75
2022-12-01T11:17:16.460Z,48.25
2022-12-01T11:19:44.583Z,45.20
2022-12-01T11:22:21.631Z,41.25
2022-12-01T11:24:58.930Z,46.25
2022-12-01T11:27:28.607Z,44.60
2022-12-01T11:29:58.916Z,46.25
2022-12-01T11:32:28.424Z,51.50
2022-12-01T11:34:57.840Z,49.60
2022-12-01T11:37:27.074Z,48.40
2022-12-01T11:39:55.071Z,51.00
2022-12-01T11:42:25.659Z,41.60
2022-12-01T11:44:54.965Z,46.00
2022-12-01T11:47:25.307Z,48.00
2022-12-01T11:49:56.680Z,45.25
2022-12-01T11:52:28.372Z,45.00
2022-12-01T11:54:57.726Z,45.25
2022-12-01T11:57:34.138Z,45.00
2022-12-01T12:00:03.055Z,45.00
2022-12-01T12:02:39.268Z,48.50
2022-12-01T12:05:46.929Z,47.20
2022-12-01T12:08:20.223Z,46.00
2022-12-01T12:10:53.053Z,54.60
2022-12-01T12:13:36.981Z,49.40
2022-12-01T12:16:09.052Z,42.00
2022-12-01T12:18:47.570Z,45.00
2022-12-01T12:21:20.598Z,46.75
2022-12-01T12:23:59.992Z,48.20
2022-12-01T12:26:28.878Z,47.60
2022-12-01T12:29:09.352Z,46.40
2022-12-01T12:31:44.099Z,44.50
2022-12-01T12:34:22.941Z,46.00
2022-12-01T12:36:57.376Z,45.50
2022-12-01T12:39:49.903Z,47.25
2022-12-01T12:42:22.079Z,43.80
2022-12-01T12:44:50.869Z,46.67
2022-12-01T12:47:26.627Z,48.00
2022-12-01T12:50:00.480Z,45.00
2022-12-01T12:52:33.308Z,46.40
2022-12-01T12:55:03.630Z,49.50
2022-12-01T12:57:33.948Z,46.00
2022-12-01T13:00:04.755Z,47.60
2022-12-01T13:02:35.494Z,45.00
2022-12-01T13:05:08.154Z,45.00
2022-12-01T13:07:40.355Z,49.33
2022-12-01T13:10:12.935Z,46.25
2022-12-01T13:12:42.886Z,45.00
2022-12-01T13:15:16.074Z,49.40
2022-12-01T13:17:45.154Z,48.00
2022-12-01T13:20:17.550Z,46.60
2022-12-01T13:22:46.681Z,46.00
2022-12-01T13:25:15.988Z,49.00
2022-12-01T13:27:44.328Z,44.60
2022-12-01T13:30:20.200Z,43.50
2022-12-01T13:32:48.186Z,42.00
2022-12-01T13:35:27.231Z,47.40
2022-12-01T13:38:15.313Z,43.40
2022-12-01T13:40:43.317Z,46.00
2022-12-01T13:43:17.871Z,45.75
2022-12-01T13:45:45.872Z,45.00
2022-12-01T13:48:28.774Z,44.40
2022-12-01T13:51:00.253Z,43.40
2022-12-01T13:53:35.904Z,47.25
2022-12-01T13:56:27.367Z,44.40
2022-12-01T13:58:55.909Z,43.50
2022-12-01T14:02:07.610Z,45.25
2022-12-01T14:04:37.261Z,44.00
2022-12-01T14:07:21.678Z,46.50
2022-12-01T14:09:50.125Z,46.25
2022-12-01T14:12:19.575Z,47.75
2022-12-01T14:14:53.634Z,50.00
2022-12-01T14:17:26.565Z,50.00
2022-12-01T14:19:54.662Z,112.00
2022-12-01T14:22:35.324Z,74.00
2022-12-01T14:25:03.352Z,62.40
2022-12-01T14:27:35.621Z,42.33
2022-12-01T14:30:36.202Z,55.25
2022-12-01T14:33:37.700Z,59.00
2022-12-01T14:36:06.841Z,46.40
2022-12-01T14:38:36.202Z,41.60
2022-12-01T14:41:08.190Z,52.60
2022-12-01T14:43:53.775Z,46.00
2022-12-01T14:46:23.208Z,46.80
2022-12-01T14:48:51.278Z,45.00
2022-12-01T14:51:27.118Z,46.00
2022-12-01T14:53:56.984Z,43.75
2022-12-01T14:56:25.229Z,49.60
2022-12-01T14:58:54.879Z,48.80
2022-12-01T15:01:23.005Z,44.40
2022-12-01T15:03:52.468Z,45.50
2022-12-01T15:06:21.798Z,44.20
2022-12-01T15:09:32.932Z,46.00
2022-12-01T15:12:00.879Z,46.60
2022-12-01T15:14:33.868Z,44.00
2022-12-01T15:17:02.705Z,44.00
2022-12-01T15:19:35.815Z,45.20
2022-12-01T15:22:06.154Z,49.25
2022-12-01T15:24:35.641Z,42.75
2022-12-01T15:27:04.303Z,42.00
2022-12-01T15:29:33.232Z,50.00
2022-12-01T15:32:02.238Z,48.00
2022-12-01T15:34:32.023Z,43.00
2022-12-01T15:37:00.623Z,45.25
2022-12-01T15:39:32.682Z,49.00
2022-12-01T15:42:02.090Z,42.60
2022-12-01T15:44:31.680Z,45.20
2022-12-01T15:46:59.676Z,39.40
2022-12-01T15:49:29.849Z,48.40
2022-12-01T15:52:06.703Z,46.40
2022-12-01T15:54:34.837Z,46.00
2022-12-01T15:57:04.486Z,44.00
2022-12-01T15:59:34.748Z,44.20
2022-12-01T16:02:23.848Z,45.60
2022-12-01T16:05:00.938Z,46.00
2022-12-01T16:08:04.541Z,46.00
2022-12-01T16:10:28.669Z,50.00
2022-12-01T16:13:29.763Z,46.25
2022-12-01T16:15:59.196Z,45.00
2022-12-01T16:18:29.775Z,48.50
2022-12-01T16:21:03.098Z,45.00
2022-12-01T16:23:31.095Z,46.50
2022-12-01T16:26:01.923Z,48.20
2022-12-01T16:28:32.925Z,42.20
2022-12-01T16:31:04.819Z,46.00
2022-12-01T16:33:34.943Z,47.20
2022-12-01T16:36:03.730Z,41.40
2022-12-01T16:38:32.095Z,40.75
2022-12-01T16:41:01.191Z,48.60
2022-12-01T16:43:29.911Z,49.00
2022-12-01T16:46:00.470Z,45.00
2022-12-01T16:48:29.930Z,45.25
2022-12-01T16:50:57.958Z,48.50
2022-12-01T16:53:25.920Z,45.00
2022-12-01T16:55:55.179Z,46.75
2022-12-01T16:58:23.198Z,45.40
2022-12-01T17:00:53.468Z,44.25
2022-12-01T17:03:22.604Z,45.00
2022-12-01T17:05:52.414Z,43.00
2022-12-01T17:08:20.502Z,45.40
2022-12-01T17:10:50.282Z,45.00
2022-12-01T17:13:18.567Z,43.80
2022-12-01T17:15:47.575Z,41.00
2022-12-01T17:18:15.885Z,42.75
2022-12-01T17:20:43.952Z,40.25
2022-12-01T17:23:13.304Z,41.00
2022-12-01T17:25:41.576Z,42.00
2022-12-01T17:28:09.564Z,38.75
2022-12-01T17:30:38.019Z,41.75
2022-12-01T17:33:05.999Z,41.00
2022-12-01T17:35:34.078Z,42.60
2022-12-01T17:38:02.065Z,46.00
2022-12-01T17:40:31.444Z,45.40
2022-12-01T17:42:59.769Z,45.00
2022-12-01T17:45:27.754Z,41.00
2022-12-01T17:47:55.884Z,45.00
2022-12-01T17:50:25.324Z,46.25
2022-12-01T17:52:53.312Z,46.75
2022-12-01T17:55:21.333Z,46.50
2022-12-01T17:57:50.673Z,42.00
2022-12-01T18:00:19.672Z,45.00
2022-12-01T18:02:47.956Z,45.00
2022-12-01T18:05:16.123Z,42.00
2022-12-01T18:07:44.230Z,46.00
2022-12-01T18:10:12.450Z,41.75
2022-12-01T18:12:40.477Z,48.50
2022-12-01T18:15:11.061Z,44.50
2022-12-01T18:17:39.115Z,42.00
2022-12-01T18:20:09.134Z,46.00
2022-12-01T18:22:37.260Z,44.40
2022-12-01T18:25:05.880Z,46.60
2022-12-01T18:27:33.891Z,45.50
2022-12-01T18:30:01.920Z,41.60
2022-12-01T18:32:31.325Z,45.25
2022-12-01T18:34:59.349Z,45.33
2022-12-01T18:37:27.374Z,41.00
2022-12-01T18:39:56.263Z,46.00
2022-12-01T18:42:24.488Z,41.00
2022-12-01T18:44:52.744Z,43.75
2022-12-01T18:47:20.892Z,42.80
2022-12-01T18:49:50.264Z,42.00
2022-12-01T18:52:18.247Z,46.40
2022-12-01T18:54:46.260Z,45.00
2022-12-01T18:57:14.671Z,46.00
2022-12-01T18:59:42.684Z,46.40
2022-12-01T19:02:11.064Z,40.20
2022-12-01T19:04:39.143Z,39.00
2022-12-01T19:07:09.520Z,46.25
2022-12-01T19:09:37.542Z,39.00
2022-12-01T19:12:05.860Z,44.50
2022-12-01T19:14:34.422Z,42.00
2022-12-01T19:17:02.428Z,41.00
2022-12-01T19:19:35.730Z,41.60
2022-12-01T19:22:05.513Z,44.50
2022-12-01T19:24:34.897Z,43.75
2022-12-01T19:27:02.910Z,37.75
2022-12-01T19:29:30.937Z,42.40
2022-12-01T19:31:59.082Z,39.60
2022-12-01T19:34:27.138Z,41.00
2022-12-01T19:36:56.802Z,41.20
2022-12-01T19:39:24.998Z,43.67
2022-12-01T19:41:54.927Z,38.00
2022-12-01T19:44:22.934Z,41.00
2022-12-01T19:46:50.931Z,35.60
2022-12-01T19:49:18.954Z,37.75
2022-12-01T19:51:46.954Z,41.00
2022-12-01T19:54:15.986Z,39.50
2022-12-01T19:56:44.087Z,38.00
2022-12-01T19:59:14.922Z,38.25
2022-12-01T20:01:43.174Z,37.50
2022-12-01T20:04:11.288Z,39.00
2022-12-01T20:06:39.484Z,44.20
2022-12-01T20:09:08.398Z,40.40
2022-12-01T20:11:36.886Z,42.00
2022-12-01T20:14:05.719Z,41.00
2022-12-01T20:16:35.145Z,43.80
2022-12-01T20:19:03.653Z,42.60
2022-12-01T20:21:32.688Z,44.25
2022-12-01T20:24:01.538Z,36.25
2022-12-01T20:26:31.111Z,43.20
2022-12-01T20:29:00.598Z,39.00
2022-12-01T20:31:29.157Z,38.00
2022-12-01T20:33:59.655Z,42.00
2022-12-01T20:36:27.936Z,41.00
2022-12-01T20:38:55.956Z,42.00
2022-12-01T20:41:23.968Z,44.75
2022-12-01T20:43:51.971Z,40.40
2022-12-01T20:46:20.263Z,44.00
2022-12-01T20:48:48.352Z,42.00
2022-12-01T20:51:17.740Z,38.67
2022-12-01T20:54:05.445Z,46.00
2022-12-01T20:56:33.951Z,50.80
2022-12-01T20:59:01.971Z,44.60
2022-12-01T21:01:30.056Z,51.25
2022-12-01T21:03:58.080Z,41.25
2022-12-01T21:06:29.131Z,38.40
2022-12-01T21:08:57.144Z,42.00
2022-12-01T21:11:40.576Z,42.00
2022-12-01T21:14:08.721Z,41.75
2022-12-01T21:16:36.785Z,37.80
2022-12-01T21:19:11.839Z,43.00
2022-12-01T21:21:41.676Z,40.20
2022-12-01T21:24:14.640Z,41.00
2022-12-01T21:26:43.350Z,44.00
2022-12-01T21:29:21.289Z,37.00
2022-12-01T21:31:50.854Z,39.80
2022-12-01T21:34:20.728Z,45.00
2022-12-01T21:36:51.488Z,43.80
2022-12-01T21:39:20.680Z,41.25
2022-12-01T21:41:49.516Z,44.20
2022-12-01T21:44:18.426Z,43.40
2022-12-01T21:46:47.801Z,46.00
2022-12-01T21:49:18.192Z,46.00
2022-12-01T21:51:46.359Z,45.25
2022-12-01T21:54:17.505Z,43.20
2022-12-01T21:56:45.533Z,50.40
2022-12-01T21:59:18.093Z,41.00
2022-12-01T22:01:46.182Z,42.00
2022-12-01T22:04:17.586Z,38.00
2022-12-01T22:06:47.416Z,38.00
2022-12-01T22:09:21.344Z,41.50
2022-12-01T22:11:52.293Z,41.00
2022-12-01T22:14:20.972Z,41.25
2022-12-01T22:16:51.413Z,43.25
2022-12-01T22:19:32.208Z,41.00
2022-12-01T22:22:12.994Z,40.50
2022-12-01T22:24:43.345Z,44.00
2022-12-01T22:27:26.739Z,45.40
2022-12-01T22:29:58.039Z,41.50
2022-12-01T22:32:53.056Z,40.00
2022-12-01T22:35:26.242Z,41.75
2022-12-01T22:37:55.158Z,47.25
2022-12-01T22:40:40.780Z,42.50
2022-12-01T22:43:20.280Z,43.00
2022-12-01T22:45:49.340Z,38.80
2022-12-01T22:48:22.867Z,45.60
2022-12-01T22:50:52.034Z,42.60
2022-12-01T22:53:21.772Z,42.00
2022-12-01T22:55:51.561Z,41.00
2022-12-01T22:58:22.466Z,42.00
2022-12-01T23:00:50.478Z,42.50
2022-12-01T23:03:18.527Z,44.60
2022-12-01T23:05:46.633Z,41.40
2022-12-01T23:08:17.707Z,39.20
2022-12-01T23:10:45.796Z,40.60
2022-12-01T23:13:16.592Z,41.00
2022-12-01T23:15:46.005Z,42.25
2022-12-01T23:18:15.650Z,45.00
2022-12-01T23:20:43.969Z,40.40
2022-12-01T23:23:14.761Z,41.50
2022-12-01T23:25:43.080Z,42.00
2022-12-01T23:28:11.458Z,39.00
2022-12-01T23:30:42.920Z,44.50
2022-12-01T23:33:17.440Z,38.50
2022-12-01T23:35:47.874Z,42.25
2022-12-01T23:38:17.307Z,41.00
2022-12-01T23:40:45.406Z,41.00
2022-12-01T23:43:17.215Z,42.80
2022-12-01T23:45:46.783Z,41.50
2022-12-01T23:48:17.922Z,41.00
2022-12-01T23:50:45.936Z,43.20
2022-12-01T23:53:28.431Z,37.20
2022-12-01T23:55:57.007Z,40.60
2022-12-01T23:58:24.997Z,42.00
